• Join FlightAware (Why Join?)
  • Login
  • US Flag 
04:33PM EDT


 

Airport Tracker/Info


-or-


 

Live Flight TrackerFlight Track Log ✈ SWA554 ✈ 06-Jul-2013 ✈ KPVD - KMCO

Flight Track Log - Related Links

Times and Time Zones

All times are in EDT time to prevent confusion due to time zone crossing. See the SWA554 flight status page for this flight to view local times or setup timezone preferences in your user account.

Time Position Orientation Groundspeed Altitude Reporting Facility
EDT Latitude Longitude Course Direction KTS MPH feet Rate Location/Type
06:58AM 41.7103 -71.4389 154° Southeast 171 197 500  Level Boston Center
07:00AM 41.6306 -71.3875 154° Southeast 260 299 3,900 2,400 Climbing Boston Center
07:01AM 41.5556 -71.3747 173° South 259 298 6,800 3,300 Climbing Boston Center
07:02AM 41.4761 -71.3486 166° South 289 333 10,600 2,700 Climbing Boston Center
07:03AM 41.3842 -71.3194 167° South 319 367 12,300 2,460 Climbing Boston Center
07:04AM 41.2794 -71.2856 166° South 376 433 15,600 2,760 Climbing Boston Center
07:05AM 41.1772 -71.2792 177° South 382 440 17,900 2,220 Climbing Boston Center
07:06AM 41.1222 -71.3986 239° Southwest 335 386 20,600 2,400 Climbing Boston Center
07:07AM 41.0672 -71.5508 244° Southwest 356 410 23,300 2,220 Climbing Boston Center
07:08AM 41.0222 -71.6589 241° Southwest 362 417 25,100 1,860 Climbing Boston Center
07:09AM 40.9711 -71.8161 247° West 407 468 27,100 1,800 Climbing Boston Center
07:10AM 40.9175 -71.9511 242° Southwest 417 480 28,700 1,500 Climbing Boston Center
07:11AM 40.8347 -72.0697 227° Southwest 439 505 30,100 1,440 Climbing Boston Center
07:12AM 40.7475 -72.1853 225° Southwest 444 511 31,600 1,320 Climbing Boston Center
07:13AM 40.6539 -72.2978 222° Southwest 444 511 32,800 1,320 Climbing Boston Center
07:14AM 40.5644 -72.4156 225° Southwest 454 522 34,300 1,560 Climbing Boston Center
07:15AM 40.4706 -72.5356 224° Southwest 459 528 36,000 1,560 Climbing Boston Center
07:16AM 40.3850 -72.6472 225° Southwest 454 522 37,500 960 Climbing Boston Center
07:17AM 40.2931 -72.7611 223° Southwest 454 522 38,000 180 Climbing Boston Center
07:18AM 40.2011 -72.8747 223° Southwest 454 522 37,900  Descending Boston Center
07:19AM 40.1131 -72.9936 226° Southwest 459 528 38,000  Climbing Boston Center
07:20AM 40.0050 -73.1322 225° Southwest 461 531 37,900  Descending Washington Center
07:21AM 39.9133 -73.2436 223° Southwest 456 525 38,000  Climbing Washington Center
07:22AM 39.8175 -73.3494 220° Southwest 456 525 38,000  Level Washington Center
07:23AM 39.7089 -73.4581 218° Southwest 453 521 38,000  Level Washington Center
07:24AM 39.6108 -73.5578 218° Southwest 453 521 38,000  Level Washington Center
07:25AM 39.5125 -73.6575 218° Southwest 458 527 38,000  Level Washington Center
07:26AM 39.4242 -73.7486 219° Southwest 458 527 38,000  Level Washington Center
07:27AM 39.3217 -73.8503 218° Southwest 458 527 38,000  Level Washington Center
07:28AM 39.2208 -73.9494 217° Southwest 458 527 38,000  Level Washington Center
07:29AM 39.1200 -74.0558 219° Southwest 458 527 38,000  Level Washington Center
07:30AM 39.0192 -74.1542 217° Southwest 458 527 38,000  Level Washington Center
07:31AM 38.9161 -74.2550 217° Southwest 458 527 38,000 -60 Level Washington Center
07:32AM 38.8172 -74.3528 218° Southwest 463 533 37,900  Descending Washington Center
07:33AM 38.7161 -74.4528 218° Southwest 463 533 38,000  Climbing Washington Center
07:34AM 38.6147 -74.5528 218° Southwest 463 533 38,000  Level Washington Center
07:35AM 38.5114 -74.6550 218° Southwest 458 527 38,000  Level Washington Center
07:36AM 38.4119 -74.7517 217° Southwest 458 527 38,000  Level Washington Center
07:37AM 38.3106 -74.8508 218° Southwest 458 527 38,000  Level Washington Center
07:38AM 38.2067 -74.9497 217° Southwest 458 527 38,000  Level Washington Center
07:39AM 38.1072 -75.0533 219° Southwest 464 534 38,000  Level Washington Center
07:40AM 38.0033 -75.1489 216° Southwest 464 534 38,000  Level Washington Center
07:41AM 37.9014 -75.2469 217° Southwest 464 534 38,000  Level Washington Center
07:42AM 37.8017 -75.3475 219° Southwest 464 534 38,000  Level Washington Center
07:43AM 37.6956 -75.4447 216° Southwest 464 534 38,000  Level Washington Center
07:44AM 37.5933 -75.5394 216° Southwest 464 534 38,000  Level Washington Center
07:45AM 37.4911 -75.6364 217° Southwest 464 534 38,000 -60 Level Washington Center
07:46AM 37.3889 -75.7331 217° Southwest 464 534 37,900  Descending Washington Center
07:47AM 37.2844 -75.8267 216° Southwest 464 534 38,000  Climbing Washington Center
07:48AM 37.1883 -75.9281 220° Southwest 459 528 38,000  Level Washington Center
07:49AM 37.0919 -76.0292 220° Southwest 459 528 38,000  Level Washington Center
07:50AM 36.9956 -76.1328 221° Southwest 459 528 38,000  Level Washington Center
07:51AM 36.8825 -76.2333 215° Southwest 459 528 38,000  Level Washington Center
07:52AM 36.7858 -76.3311 219° Southwest 459 528 38,000  Level Washington Center
07:53AM 36.6892 -76.4364 221° Southwest 459 528 38,000  Level Washington Center
07:54AM 36.5925 -76.5311 218° Southwest 459 528 38,000  Level Washington Center
07:55AM 36.4936 -76.6281 218° Southwest 454 522 38,000  Level Washington Center
07:56AM 36.3969 -76.7247 219° Southwest 454 522 38,000  Level Washington Center
07:57AM 36.2958 -76.8239 218° Southwest 454 522 38,000  Level Washington Center
07:58AM 36.1989 -76.9200 219° Southwest 454 522 38,000  Level Washington Center
07:59AM 36.1017 -77.0186 219° Southwest 454 522 38,000  Level Washington Center
08:00AM 36.0025 -77.1144 218° Southwest 454 522 38,000  Level Washington Center
08:01AM 35.9072 -77.2103 219° Southwest 448 516 38,000  Level Washington Center
08:02AM 35.8247 -77.2956 220° Southwest 448 516 38,000  Level Washington Center
08:03AM 35.7231 -77.3906 217° Southwest 453 521 38,000  Level Washington Center
08:04AM 35.6258 -77.4856 218° Southwest 453 521 38,000  Level Washington Center
08:05AM 35.5281 -77.5828 219° Southwest 453 521 38,000  Level Washington Center
08:06AM 35.4286 -77.6772 218° Southwest 453 521 38,000  Level Washington Center
08:07AM 35.3289 -77.7714 218° Southwest 453 521 38,000  Level Washington Center
08:08AM 35.2289 -77.8703 219° Southwest 453 521 38,000  Level Washington Center
08:09AM 35.1289 -77.9639 217° Southwest 453 521 38,000  Level Washington Center
08:11AM 34.9522 -78.1339 218° Southwest 454 522 38,000  Level Jacksonville Center
08:12AM 34.8514 -78.2256 217° Southwest 454 522 38,000  Level Jacksonville Center
08:13AM 34.7492 -78.3344 221° Southwest 454 522 38,000 -60 Level Jacksonville Center
08:14AM 34.6522 -78.4281 218° Southwest 454 522 37,900  Descending Jacksonville Center
08:15AM 34.5572 -78.5086 215° Southwest 454 522 38,000  Climbing Jacksonville Center
08:16AM 34.4525 -78.6172 221° Southwest 454 522 38,000  Level Jacksonville Center
08:17AM 34.3533 -78.7075 217° Southwest 454 522 38,000  Level Jacksonville Center
08:18AM 34.2542 -78.8003 218° Southwest 454 522 38,000  Level Jacksonville Center
08:19AM 34.1850 -78.9264 236° Southwest 446 513 38,000  Level Jacksonville Center
08:20AM 34.1161 -79.0600 238° Southwest 464 534 38,000  Level Jacksonville Center
08:21AM 34.0511 -79.1856 238° Southwest 464 534 38,000  Level Jacksonville Center
08:22AM 33.9600 -79.2847 222° Southwest 440 506 38,000  Level Jacksonville Center
08:23AM 33.8383 -79.3322 198° South 440 506 38,000  Level Jacksonville Center
08:24AM 33.7186 -79.3769 197° South 440 506 38,000  Level Jacksonville Center
08:25AM 33.6217 -79.4158 198° South 435 501 38,000  Level Jacksonville Center
08:26AM 33.5019 -79.4653 199° South 442 509 38,000  Level Jacksonville Center
08:27AM 33.3842 -79.5122 198° South 442 509 38,000  Level Jacksonville Center
08:28AM 33.2667 -79.5614 199° South 442 509 38,000  Level Jacksonville Center
08:29AM 33.1508 -79.6078 199° South 442 509 38,000  Level Jacksonville Center
08:30AM 33.0331 -79.6542 198° South 442 509 38,000  Level Jacksonville Center
08:31AM 32.9175 -79.7006 199° South 442 509 38,000  Level Jacksonville Center
08:32AM 32.7975 -79.7492 199° South 442 509 38,000  Level Jacksonville Center
08:33AM 32.6800 -79.8000 200° South 448 516 38,000  Level Jacksonville Center
08:34AM 32.5600 -79.8461 198° South 453 521 38,000  Level Jacksonville Center
08:35AM 32.4400 -79.8969 200° South 458 527 38,000  Level Jacksonville Center
08:36AM 32.3181 -79.9450 198° South 458 527 38,000  Level Jacksonville Center
08:37AM 32.1878 -79.9983 199° South 458 527 38,000  Level Jacksonville Center
08:38AM 32.0678 -80.0439 198° South 458 527 38,000  Level Jacksonville Center
08:39AM 31.9539 -80.0914 199° South 458 527 38,000  Level Jacksonville Center
08:40AM 31.8358 -80.1367 198° South 452 520 38,000  Level Jacksonville Center
08:41AM 31.7219 -80.1817 199° South 442 509 38,000  Level Jacksonville Center
08:42AM 31.6061 -80.2289 199° South 442 509 38,000  Level Jacksonville Center
08:43AM 31.4903 -80.2761 199° South 442 509 38,000  Level Jacksonville Center
08:44AM 31.3722 -80.3231 199° South 442 509 38,000  Level Jacksonville Center
08:45AM 31.2708 -80.3672 200° South 447 514 38,000  Level Jacksonville Center
08:46AM 31.1506 -80.4069 196° South 442 509 38,000  Level Jacksonville Center
08:47AM 31.0303 -80.4536 198° South 442 509 38,000  Level Jacksonville Center
08:48AM 30.9142 -80.4978 198° South 449 517 38,000  Level Jacksonville Center
08:49AM 30.7961 -80.5444 199° South 444 511 38,000  Level Jacksonville Center
08:50AM 30.6819 -80.5883 198° South 444 511 38,000 -60 Level Jacksonville Center
08:51AM 30.5617 -80.6344 198° South 444 511 37,900 -1,440 Descending Jacksonville Center
08:52AM 30.4394 -80.6808 198° South 444 511 35,200 -2,040 Descending Jacksonville Center
08:53AM 30.3233 -80.7267 199° South 456 525 33,900 -600 Descending Jacksonville Center
08:54AM 30.2008 -80.7753 199° South 462 532 34,000  Climbing Jacksonville Center
08:55AM 30.0703 -80.8236 198° South 462 532 34,000 -1,080 Level Jacksonville Center
08:56AM 29.9519 -80.8669 198° South 462 532 31,900 -2,580 Descending Jacksonville Center
08:57AM 29.8336 -80.9150 199° South 462 532 28,900 -2,820 Descending Jacksonville Center
08:58AM 29.7175 -80.9578 198° South 456 525 26,300 -2,580 Descending Jacksonville Center
08:59AM 29.6053 -81.0031 199° South 445 512 23,800 -2,400 Descending Jacksonville Center
09:00AM 29.4994 -81.0433 198° South 427 491 21,500 -2,340 Descending Jacksonville Center
09:01AM 29.3978 -81.0786 197° South 404 465 19,200 -2,220 Descending Jacksonville Center
09:02AM 29.2981 -81.1114 196° South 391 450 17,100 -2,220 Descending Jacksonville Center
09:03AM 29.2019 -81.1061 177° South 370 426 14,900 -1,620 Descending Jacksonville Center
09:04AM 29.1058 -81.1006 177° South 349 402 13,900 -1,200 Descending Jacksonville Center
09:05AM 29.0264 -81.0925 175° South 323 372 12,600 -1,140 Descending Jacksonville Center
09:06AM 28.9447 -81.0797 172° South 306 352 11,700 -1,320 Descending Jacksonville Center
09:07AM 28.8653 -81.0669 172° South 301 346 10,000 -1,680 Descending Jacksonville Center
09:08AM 28.8000 -81.0500 167° South 285 328 8,800 -1,080 Descending Orlando TRACON
09:09AM 28.7500 -81.0833 210° Southwest 259 298 8,100 -1,020 Descending Orlando TRACON
09:10AM 28.7500 -81.1667 270° West 253 291 6,800 -1,320 Descending Orlando TRACON
09:11AM 28.7167 -81.2333 240° Southwest 244 281 5,500 -1,140 Descending Orlando TRACON
09:12AM 28.6667 -81.2500 196° South 220 253 4,600 -900 Descending Orlando TRACON
09:13AM 28.6167 -81.2833 210° Southwest 174 200 3,800 -1,080 Descending Orlando TRACON
09:14AM 28.5667 -81.3000 196° South 174 200 2,500 -1,020 Descending Orlando TRACON
09:15AM 28.5333 -81.3000 180° South 144 166 1,800 -720 Descending Orlando TRACON
09:16AM 28.4833 -81.3000 180° South 141 162 1,000 -780 Descending Orlando TRACON
09:18AM 28.4294 -81.3090 180° South  Level Estimated
09:25AM 28.4294 -81.3090 180° South  Level Estimated
09:26AM 28.4294 -81.3090 180° South  Level Estimated
09:27AM 28.4294 -81.3090 180° South  Level Estimated
09:28AM 28.4294 -81.3090 180° South  Level Estimated